Airfield :
LOGIN :

Register | Disclaimer

   EN    FR    IT 

 










Legend :    VFR   Marginal VFR   IFR   Intensive IFR   Very Intensive IFR
Visi :
Ceiling :
>= 8 km
>= 3000ft
5 to 8 km
1000 to 3000 ft
1500m to 5 km
500 to 1000 ft
800 to 1500m
200 to 500 ft
< 800m
< 200 ft
Symbols :   Thunderstorms  Fog  Heavy snow  Heavy precipitations  Wind > 20 kt
SIGMETs :     Misc.  Thunderstorms  Icing  Turbulence  Mountain Waves  Volcanic Ashes






- Airport Elevation : 286 ft
- IATA code : FFD


EGVA - RAF Fairford

CURRENT METAR :
  • 310356Z AUTO 20015KT 9999 OVC008 13/13 A2991 RMK AO2 SLP131 T01340134 $

EXPIRED METARs :
  • 310256Z AUTO 20013KT 9999 OVC008 14/14 A2993 RMK AO2 SLP138 60000 T01350135 57022 $
  • 310156Z AUTO 19015G21KT 9999 OVC009 14/14 A2995 RMK AO2 SLP145 T01380138 $

TAF AMD TAF EGVA
Valid from the 30 at 16:00 until the 31 at 21:00 UTC


301650Z 3016/3121 22012KT 8000 -SHRA SCT015 OVC025 QNH2999INS
BECMG 3100/3101 20012G18KT 9999 NSW SCT008 BKN010 OVC015 QNH2994INS
BECMG 3102/3103 18015G25KT 9999 SCT008 BKN010 OVC015 QNH2985INS
BECMG 3105/3106 18015G25KT 9000 -RA SCT008 OVC010 QNH2978INS
BECMG 3107/3108 18025G35KT 9000 -RA SCT008 OVC010 510003 QNH2962INS
TEMPO 3110/3113 20030G40KT 520003
BECMG 3113/3114 25015G25KT 9999 NSW SCT012 BKN018 QNH2968INS
BECMG 3117/3118 22010G15KT 9999 BKN025 QNH2980INS TX15/3016Z TN10/3115Z LAST NO AMDS AFT 3017 NEXT 0208



MET'MAP, your aeronautical weather chart ! - Copyright ORBIFLY December 2007 - Disclaimer

ORBIFLY MET'MAP TEAM :

Programming & Development : Alexandra Zaïnal
Concept & original design : Baudouin d'Aumeries
Assistance for programming : Marc-Olivier Méhu
Technical & hardware support : Manuel Goepfert

Contact : metmap@orbifly.com




SOURCES & CREDITS :

   NOAA